الصفحة الرئيسية
METAR-TAF:

METAR-TAF

مطار :

الأخدود العظيم, أريزونا, الولايات المتحدة

دائرة عرض: 35-56-46N, خط طول: 112-09-17W, ارتفاع: 2014 متر

مراقبة الطقس الحالي

تاريخ ووقت الإصدار 52 دقيقة قبل الساعة 08:54UTC
ريح 6 عقدة من الشرق/الشمال الشرقي
درجة الحرارة 12°درجة مئوية
الرطوبة 16%
ضغط 1029 hPa
الرؤية: 16.1 كم
سماء صافية

METAR: KGCN 290854Z AUTO 06006KT 10SM CLR 12/M13 A3040 RMK AO2 SLP207 T01221133 57002

زمن: 02:46 (09:46 UTC)

توقعات

تاريخ ووقت الإصدار 4ساعات و 26 دقيقة قبل الساعة 05:20UTC
التوقعات صالحة من29 الساعة 06 UTC إلى 30 الساعة 06 UTC
ريح 3 عقدةمن اتجاهات متغيرة
الرؤية: 10 كم
سماء صافية
من 29 الساعة 1700 UTC
ريح 6 عقدة من الشرق/الشمال الشرقي
الرؤية: 10 كم
سماء صافية

TAF: KGCN 290520Z 2906/3006 VRB03KT P6SM SKC FM291700 07006KT P6SM SKC

أرصاد الطقس والتوقعات من أكثر من 4000 مطار (تقارير الطقس للمطار METAR والتنبؤ بالطقس بالمطارTAF).

المحطات المتاحة هي النقط الصفراء والحمراء على الخريطة.

حرك المؤشر فوق النقطة لمعرفة اسم المحطة.

ثم انقر لمعرفة أرصاد وتوقعات الطقس.

لتغيير الخارطة: اضغط على الأزرار الخضراء مع رمز الصليب الأسود للتكبير. على الزر الأخضر مع شرطة للتصغير، أو على الأسهم الخضراء للخرائط المجاورة.


METAR-TAF: